Cherry Hill, New Jersey
Current Conditions -  °F | °C
As of 4:54 PM on Tuesday 21 Oct 2014 (Local Time) from KVAY Reporting Station
Clear Clear  
Wind Chill: 68°   Ceiling: Unl
Heat Index: 68°   Visibility: 10mi
Dew Point: 45°   Wind: 3mph
Humidity: 43%   Direction: 300°WNW
Pressure: 29.8"   Gusts: NA
Location:  39.93°N, 75.03°W
Report Text: KVAY 212054Z AUTO 30003KT 10SM CLR 20/07 A2980 RMK AO2 SLP091 T02000072 56003
Loading
Personal Weather Stations






























Interactive Weather Map
Tropical Storm Tracking
New forecast layout! Learn more

10-Day Weather Forecast

Advertisements
Track Severe Weather on mobile